Granit Xhaka

Olheiro - Basel
3 Dez 2028
Domingo
Processo

Personalidade

Adaptabilidade (11) Ambição (5) Controvérsia (13) Lealdade (20) Pressão (6) Profissionalismo (11) Espírito Esportivo (9) Temperamento (13)

Perfil

Estilo de Treinamento Democrático
Licença Continental A
Determinação 12
Gestão de Pessoas 10
Motivação 7
Disciplina 7
Satisfação no Trabalho
100%
Fadiga
0%
Função Olheiro
Salário 25.8K p/s
Contrato 14.03.2029

Desempenho

Comportamento Bom
Eficácia do Treinamento
33%
Desenvolvimento do Jogador
70%
Prevenção de Lesões
25%
Implementação Tática
40%

Eventos Recentes

Avaliou um jogador agora
Participou de uma reunião de recrutamento agora
Recomendou um alvo de transferência agora
Recomendou um alvo de transferência agora
Recomendou um alvo de transferência agora
Avaliou um jogador agora
Avaliou um jogador agora
Avaliou um jogador 7d atrás

Monitorando agora

126
Jogador Clube Status Habilidade Confiança Observado Última observação Último voto
Willian Batista Cortulua Ativo 148 / 158 40% 2 02.12.2028 -
Jonathan De Irastorza Independiente Ativo 132 / 123 40% 2 02.12.2028 -
Lucas Piton Vasco da Gama Ativo 138 / 125 40% 1 02.12.2028 -
Camilo Martinez Cortulua Ativo 128 / 118 40% 3 01.12.2028 -
Gastón Martirena Racing Club Ativo 132 / 122 40% 3 01.12.2028 -
Rico Henry River Plate Ativo 144 / 136 40% 2 01.12.2028 -
Marcos López Gimnasia La Plata Ativo 133 / 131 40% 2 30.11.2028 -
Eros Mancuso Fortaleza Ativo 127 / 119 40% 2 30.11.2028 -
Matheus Rossetto Fortaleza Ativo 129 / 137 40% 1 28.11.2028 -
Riku Handa Gamba Osaka Ativo 135 / 142 40% 1 28.11.2028 -
Nahuel Furtado Atletico Nacional Ativo 129 / 132 40% 4 27.11.2028 -
Fábio Vieira Huddersfield Town Ativo 154 / 152 40% 1 27.11.2028 -
Juan Pablo Freytes Fluminense Ativo 135 / 136 40% 1 27.11.2028 -
Aarón Quiros Vélez Ativo 131 / 127 40% 2 26.11.2028 -
Takuya Ogiwara Urawa Reds Ativo 129 / 134 40% 2 26.11.2028 -
Kayne Ramsay Atlético Mineiro Ativo 132 / 129 40% 2 26.11.2028 -
Vicente Poggi Godoy Cruz Ativo 128 / 136 40% 1 25.11.2028 -
Thiago Silvero Vélez Ativo 129 / 124 40% 1 25.11.2028 -
Gonzalo Pérez Lanús Ativo 126 / 119 40% 2 22.11.2028 -
Santiago Salcedo Cruzeiro Ativo 159 / 162 40% 2 22.11.2028 -
Tojiro Kubo Kashiwa Reysol Ativo 132 / 120 40% 1 20.11.2028 -
Japhet Sery Larsen Philadelphia Union Ativo 129 / 128 40% 2 19.11.2028 -
Bruno Leyes Godoy Cruz Ativo 128 / 126 40% 3 19.11.2028 -
Kimito Nono Yokohama F. Marinos Ativo 130 / 132 40% 1 19.11.2028 -
Facundo Mura Inter Miami CF Ativo 128 / 120 40% 3 18.11.2028 -
Nicolás Tripichio San Lorenzo Ativo 127 / 129 40% 1 17.11.2028 -
Riku Yamane Yokohama F. Marinos Ativo 136 / 142 40% 3 14.11.2028 -
Gonzalo Luján Inter Miami CF Ativo 127 / 123 40% 2 14.11.2028 -
Loïc Williams Charlotte Football Club Ativo 134 / 137 40% 1 13.11.2028 -
Gastón Benedetti Estudiantes Ativo 131 / 124 40% 1 13.11.2028 -
Matheus Thuler Vegalta Sendai Ativo 133 / 143 40% 1 12.11.2028 -
Sota Miura Kawasaki Frontale Ativo 126 / 116 40% 1 12.11.2028 -
Francisco Álvarez Nacional Ativo 127 / 115 40% 3 11.11.2028 -
Daiki Matsuoka Avispa Fukuoka Ativo 134 / 126 40% 1 11.11.2028 -
Felipe Peña Biafore Lanús Ativo 133 / 128 40% 2 10.11.2028 -
Ignacio Vázquez Platense Ativo 129 / 140 40% 1 09.11.2028 -
Tomás Escalante River Plate Ativo 127 / 112 40% 1 09.11.2028 -
Franco Ibarra Rosario Central Ativo 130 / 141 40% 1 08.11.2028 -
Emanuel Coronel Rosario Central Ativo 126 / 129 40% 1 07.11.2028 -
Nahuel Tenaglia Banfield Ativo 135 / 123 40% 3 06.11.2028 -
Christian Kashima Antlers Ativo 139 / 144 40% 1 06.11.2028 -
Jahkeele Marshall-Rutty New York Red Bulls Ativo 127 / 127 40% 1 04.10.2028 -
Juan Manuel Sanabria Real Salt Lake Ativo 131 / 135 40% 1 04.10.2028 -
Marco Di Cesare Racing Club Ativo 130 / 124 40% 2 03.10.2028 -
Juan Sierra La Equidad Ativo 132 / 141 40% 1 03.10.2028 -
Kai Wagner Philadelphia Union Ativo 125 / 122 40% 1 02.10.2028 -
Emiliano Álvarez Progreso Ativo 123 / 116 40% 1 04.09.2028 -
Nikolas Muci Grasshopper Relatório pronto 121 / 121 93% 1 28.08.2028 -
Adrián Sánchez Belgrano Perdido 126 / 126 40% 1 28.08.2028 -
Benji Siegrist Grasshopper Relatório pronto 120 / 119 93% 1 21.08.2028 -
Baltazar Sion Perdido 119 / 121 93% 1 14.08.2028 -
Carlos Romero Villarreal Ativo 160 / 159 40% 4 07.08.2028 -
Lamare Bogarde Reading Ativo 145 / 141 40% 5 07.08.2028 -
Andrey Santos Bolton Wanderers Ativo 152 / 157 40% 3 02.08.2028 -
Marvin Park Las Palmas Ativo 141 / 136 40% 2 02.08.2028 -
Bojan Kovačević Cádiz Ativo 140 / 134 40% 1 02.08.2028 -
Zito Luvumbo Cagliari Ativo 140 / 138 40% 1 25.07.2028 -
Rodrigo Muniz Fulham Ativo 148 / 142 40% 1 25.07.2028 -
Luis Suárez Sporting CP Ativo 163 / 161 40% 1 25.07.2028 -
Nils Reichmuth Thun Ativo 123 / 120 93% 1 17.07.2028 Aprovar
Ali Kabacalman Sion Ativo 117 / 124 93% 1 10.07.2028 Aprovar
Matteo di Giusto Luzern Perdido 132 / 138 93% 1 03.07.2028 -
Omar El Hilali Espanyol Ativo 157 / 150 40% 7 12.06.2028 -
Thierry Small Preston Ativo 128 / 126 40% 3 12.06.2028 -
Sinan Karweina Luzern Perdido 117 / 116 93% 1 06.06.2028 -
Nicolas Jackson Aston Villa Ativo 155 / 150 40% 1 01.06.2028 -
Arnaud Kalimuendo Nottingham Forest Perdido 149 / 156 40% 1 01.06.2028 -
Bafodé Diakité Plymouth Argyle Ativo 147 / 138 40% 3 31.05.2028 -
Jayden Danns Bradford City Ativo 139 / 139 40% 1 31.05.2028 -
Thiago Brentford Ativo 154 / 145 40% 1 31.05.2028 -
Matteo Ruggeri Middlesbrough Ativo 156 / 150 40% 8 30.05.2028 -
Neco Williams Wrexham Ativo 152 / 145 40% 7 29.05.2028 -
Yasin Ayari Middlesbrough Ativo 152 / 148 40% 1 29.05.2028 -
Angeliño AS Roma Ativo 154 / 148 40% 1 28.05.2028 -
Iván Martín Racing Santander Ativo 150 / 146 40% 2 27.05.2028 -
Jesús Areso Athletic Bilbao Ativo 150 / 154 40% 3 23.05.2028 -
Mats Wieffer Brighton Ativo 152 / 158 40% 5 22.05.2028 -
André Wolverhampton Ativo 153 / 151 40% 2 21.05.2028 -
Alex Scott Bournemouth Ativo 157 / 163 40% 5 21.05.2028 -
Calvin Ramsay Bristol Rovers Ativo 126 / 124 40% 1 20.05.2028 -
Boubacar Kamara Aston Villa Ativo 168 / 162 40% 3 19.05.2028 -
Welington Southampton Ativo 137 / 131 40% 1 19.05.2028 -
José Ángel Carmona Sevilla Ativo 155 / 157 40% 4 17.05.2028 -
Antonio Blanco Alavés Ativo 151 / 144 40% 4 17.05.2028 -
Vitaly Janelt Derby County Ativo 149 / 148 40% 2 17.05.2028 -
Dean Huijsen Las Palmas Ativo 149 / 147 40% 1 15.05.2028 -
Max Johnston Derby County Ativo 135 / 137 40% 4 14.05.2028 -
Fran García Betis Ativo 153 / 160 40% 5 13.05.2028 -
Jarrad Branthwaite Everton Ativo 159 / 161 40% 2 07.05.2028 -
David Møller Wolfe Wolverhampton Ativo 142 / 146 40% 2 07.05.2028 -
Timothy Castagne Stoke City Ativo 143 / 140 40% 1 07.05.2028 -
Santi Comesaña Villarreal Ativo 155 / 152 40% 2 05.05.2028 -
Arnau Martínez Valencia Ativo 152 / 145 40% 3 05.05.2028 -
Shea Charles Southampton Ativo 147 / 146 40% 3 04.05.2028 -
Callum Brittain Middlesbrough Ativo 136 / 141 40% 2 04.05.2028 -
Aaron Hickey Brentford Ativo 151 / 153 40% 3 03.05.2028 -
Xaver Schlager Nottingham Forest Ativo 155 / 155 40% 1 03.05.2028 -
Jayden Bogle Leeds United Ativo 146 / 138 40% 4 29.04.2028 -
Exequiel Palacios Lazio Ativo 163 / 153 40% 2 27.04.2028 -
Adam Wharton Crystal Palace Ativo 158 / 162 40% 1 27.04.2028 -
Sander Berge Derby County Ativo 148 / 148 40% 1 26.04.2028 -
Max Bird Birmingham Ativo 137 / 132 40% 2 23.04.2028 -
Quinten Timber Crystal Palace Ativo 156 / 162 40% 1 23.04.2028 -
Nordi Mukiele Sunderland Ativo 148 / 150 40% 2 21.04.2028 -
Ryan Sessegnon Fulham Ativo 152 / 154 40% 2 17.04.2028 -
Bobby Thomas Grimsby Town Ativo 139 / 130 40% 1 17.04.2028 -
Manu Koné AS Roma Ativo 171 / 175 40% 2 10.04.2028 -
Javi Rodríguez Celta Ativo 156 / 149 40% 2 08.04.2028 -
Alejandro Francés Girona Ativo 140 / 143 40% 1 07.04.2028 -
Zakaria El Ouahdi Hamburger SV Ativo 136 / 142 40% 1 05.04.2028 -
Sven Botman Newcastle United Ativo 163 / 160 40% 1 04.04.2028 -
Óscar Mingueza Crystal Palace Ativo 157 / 162 40% 1 03.04.2028 -
Yan Valery Sheffield Wednesday Ativo 127 / 118 40% 1 01.04.2028 -
Kike Salas Sevilla Ativo 149 / 157 40% 1 28.03.2028 -
Renan Lodi Atlético Mineiro Ativo 146 / 136 40% 1 20.03.2028 -
Sergi Cardona KAA Gent Ativo 152 / 156 40% 1 20.03.2028 -
Kenny Tete Fulham Ativo 146 / 147 40% 1 18.03.2028 -
Manuel Ugarte Leicester City Ativo 147 / 155 40% 1 18.03.2028 -
Dwight McNeil Crystal Palace Perdido 144 / 148 40% 1 31.12.2027 -
Yassir Zabiri Stade Rennais Ativo 140 / 144 40% 1 31.12.2027 -
Liam Chipperfield Sion Ativo 107 / 123 83% 1 03.06.2027 Aprovar
Azor Matusiwa Ipswich Town Ativo 134 / 138 40% 1 31.05.2027 -
Anthony Patterson Wrexham Ativo 130 / 133 40% 1 31.12.2026 -
Mile Svilar AS Roma Ativo 160 / 170 40% 1 31.12.2026 -
Miro Muheim Hamburger SV Ativo 127 / 143 40% 1 02.08.2026 -
Ellyes Skhiri Köln Ativo 133 / 135 40% 1 02.08.2026 -